Terminal Aerodrome Forecast
Issued by NWS Sterling, VA

Current Version | Previous Version | Text Only | Print | Product List | Glossary Off
Versions: 1 2 3 4 5 6 7 8 9 10 11 12 13 14 15 16

120
FTUS41 KLWX 192338
TAFMRB
TAF
KMRB 192338Z 2000/2024 31013G25KT P6SM BKN050
     FM200200 31012G22KT P6SM SCT050
     FM200600 31011G18KT P6SM FEW250
     FM201300 32014G24KT P6SM FEW050
     FM202300 32010G17KT P6SM FEW250=

USA.gov is the U.S. government's official web portal to all federal, state and local government web resources and services.